Nashville International Airport
KBNA : now visible

Airfield :











YOU CAN JOIN US ON...

 
LOGIN :

Register | Disclaimer

   EN    FR    IT 

 









Legend :    VFR   Marginal VFR   IFR   Intensive IFR   Very Intensive IFR
Visi :
Ceiling :
>= 8 km
>= 3000ft
5 to 8 km
1000 to 3000 ft
1500m to 5 km
500 to 1000 ft
800 to 1500m
200 to 500 ft
< 800m
< 200 ft
Symbols :   Thunderstorms  Fog  Heavy snow  Heavy precipitations  Wind > 20 kt






- Airport Elevation : 599 ft
- IATA code : BNA


KBNA - Nashville International

CURRENT METAR :
  • 282253Z 31013G17KT 10SM FEW065 SCT075 BKN250 28/09 A3002 RMK AO2 SLP160 T02780094

EXPIRED METARs :
  • 282153Z 32009G18KT 10SM SCT065 SCT080 BKN250 29/12 A3003 RMK AO2 SLP161 T02890122
  • 282053Z 32009G19KT 10SM SCT070 BKN090 BKN250 29/13 A3002 RMK AO2 SLP158 T02890128 58010
  • 281953Z 28010G19KT 10SM SCT075 SCT095 BKN250 29/12 A3003 RMK AO2 SLP163 T02940122
  • 281853Z 30011G18KT 10SM FEW075 SCT090 SCT250 28/10 A3004 RMK AO2 SLP167 T02830100
  • 281753Z 29011G18KT 10SM BKN080 BKN250 28/09 A3005 RMK AO2 SLP168 T02830089 10294 20200 51003

TAF KBNA
Valid from the 28 at 18:00 until the 29 at 18:00 UTC


281720Z 2818/2918 31010G17KT P6SM SCT060
FM290100 27003KT P6SM SKC
FM291400 32004KT P6SM SCT250
KZME FIR / North America



MET'MAP, your aeronautical weather chart ! - Copyright ORBIFLY December 2007 - Disclaimer

ORBIFLY MET'MAP TEAM :

Programming & Development : Alexandra Zaïnal
Original concept : Baudouin d'Aumeries
Technical & hardware support : Manuel Goepfert
Assistance : Marc-Olivier Méhu




SOURCES & CREDITS :

   NOAA       Earth
Advisory